createdAt,value
2019-03-31T00:04:07.168Z,38.03
2019-03-31T00:09:13.760Z,39.70
2019-03-31T00:14:20.436Z,39.50
2019-03-31T00:19:26.940Z,31.30
2019-03-31T00:24:33.619Z,32.73
2019-03-31T00:29:40.096Z,25.83
2019-03-31T00:34:46.803Z,24.43
2019-03-31T00:39:53.446Z,27.87
2019-03-31T00:45:00.348Z,25.47
2019-03-31T00:50:07.394Z,24.90
2019-03-31T00:55:13.966Z,25.70
2019-03-31T01:00:40.414Z,23.00
2019-03-31T01:05:48.538Z,23.03
2019-03-31T01:10:55.127Z,20.50
2019-03-31T01:16:02.005Z,23.77
2019-03-31T01:21:08.498Z,25.03
2019-03-31T01:26:18.052Z,21.33
2019-03-31T01:31:24.480Z,20.47
2019-03-31T01:36:31.031Z,20.07
2019-03-31T01:41:37.601Z,20.93
2019-03-31T01:46:44.285Z,20.40
2019-03-31T01:51:50.877Z,22.00
2019-03-31T01:56:57.377Z,22.73
2019-03-31T02:02:04.841Z,22.23
2019-03-31T02:07:11.776Z,21.87
2019-03-31T02:12:18.275Z,23.20
2019-03-31T02:17:24.856Z,24.30
2019-03-31T02:22:31.334Z,25.60
2019-03-31T02:27:38.016Z,23.73
2019-03-31T02:32:44.511Z,25.00
2019-03-31T02:37:51.137Z,20.27
2019-03-31T02:42:57.680Z,27.07
2019-03-31T02:48:04.297Z,26.53
2019-03-31T02:53:10.966Z,21.27
2019-03-31T02:58:18.554Z,25.80
2019-03-31T03:03:25.351Z,19.73
2019-03-31T03:08:34.997Z,24.77
2019-03-31T03:13:43.748Z,21.30
2019-03-31T03:18:50.402Z,22.13
2019-03-31T03:23:57.076Z,22.53
2019-03-31T03:29:03.720Z,22.40
2019-03-31T03:34:10.252Z,23.47
2019-03-31T03:39:16.921Z,26.73
2019-03-31T03:44:23.411Z,24.00
2019-03-31T03:49:30.057Z,24.27
2019-03-31T03:54:36.695Z,28.47
2019-03-31T03:59:43.374Z,23.63
2019-03-31T04:04:49.835Z,26.37
2019-03-31T04:09:56.411Z,22.30
2019-03-31T04:15:02.957Z,22.43
2019-03-31T04:20:09.585Z,21.53
2019-03-31T04:25:16.134Z,22.30
2019-03-31T04:30:22.698Z,24.67
2019-03-31T04:35:29.306Z,23.20
2019-03-31T04:40:36.857Z,23.67
2019-03-31T04:45:53.261Z,22.03
2019-03-31T04:50:59.798Z,21.83
2019-03-31T04:56:06.464Z,21.70
2019-03-31T05:01:12.956Z,22.87
2019-03-31T05:06:19.629Z,24.70
2019-03-31T05:11:41.437Z,24.23
2019-03-31T05:16:48.095Z,24.03
2019-03-31T05:21:54.618Z,23.53
2019-03-31T05:27:01.288Z,27.47
2019-03-31T05:32:07.973Z,25.53
2019-03-31T05:37:14.473Z,23.80
2019-03-31T05:42:21.244Z,23.30
2019-03-31T05:47:27.848Z,24.10
2019-03-31T05:52:34.440Z,24.53
2019-03-31T05:57:40.930Z,26.33
2019-03-31T06:02:47.594Z,25.43
2019-03-31T06:07:54.426Z,28.13
2019-03-31T06:13:00.865Z,27.30
2019-03-31T06:18:07.499Z,22.67
2019-03-31T06:23:14.147Z,27.13
2019-03-31T06:28:20.724Z,24.23
2019-03-31T06:33:27.377Z,24.77
2019-03-31T06:38:33.892Z,22.73
2019-03-31T06:43:40.389Z,22.60
2019-03-31T06:48:47.064Z,24.57
2019-03-31T06:53:53.676Z,25.70
2019-03-31T06:59:00.359Z,26.47
2019-03-31T07:04:06.892Z,35.13
2019-03-31T07:09:13.552Z,41.17
2019-03-31T07:14:19.941Z,41.70
2019-03-31T07:19:26.755Z,44.00
2019-03-31T07:24:33.419Z,46.33
2019-03-31T07:29:39.977Z,42.70
2019-03-31T07:34:46.601Z,47.70
2019-03-31T07:39:53.190Z,44.40
2019-03-31T07:44:59.826Z,48.47
2019-03-31T07:50:07.525Z,44.23
2019-03-31T07:55:14.572Z,45.67
2019-03-31T08:00:21.953Z,46.67
2019-03-31T08:05:33.397Z,54.87
2019-03-31T08:10:36.876Z,56.17
2019-03-31T08:15:43.483Z,57.67
2019-03-31T08:20:50.091Z,54.40
2019-03-31T08:25:56.637Z,56.50
2019-03-31T08:31:03.218Z,63.47
2019-03-31T08:36:09.696Z,62.77
2019-03-31T08:41:16.266Z,62.83
2019-03-31T08:46:22.803Z,56.27
2019-03-31T08:51:29.347Z,54.00
2019-03-31T08:56:35.837Z,53.90
2019-03-31T09:01:43.130Z,61.00
2019-03-31T09:06:49.741Z,56.67
2019-03-31T09:11:56.341Z,55.83
2019-03-31T09:17:02.931Z,51.83
2019-03-31T09:22:09.495Z,47.33
2019-03-31T09:27:15.992Z,47.60
2019-03-31T09:32:22.441Z,47.70
2019-03-31T09:37:28.942Z,44.20
2019-03-31T09:42:35.646Z,49.33
2019-03-31T09:47:42.377Z,52.70
2019-03-31T09:52:49.837Z,54.17
2019-03-31T09:57:56.464Z,56.27
2019-03-31T10:03:03.292Z,54.57
2019-03-31T10:08:10.044Z,53.10
2019-03-31T10:13:16.658Z,57.70
2019-03-31T10:18:23.421Z,59.43
2019-03-31T10:23:30.121Z,55.53
2019-03-31T10:28:36.921Z,54.30
2019-03-31T10:33:43.509Z,55.57
2019-03-31T10:38:50.309Z,57.07
2019-03-31T10:43:57.012Z,54.27
2019-03-31T10:49:03.455Z,57.73
2019-03-31T10:54:10.088Z,57.17
2019-03-31T10:59:16.727Z,55.23
2019-03-31T11:04:23.453Z,56.13
2019-03-31T11:09:30.132Z,55.07
2019-03-31T11:14:36.778Z,55.53
2019-03-31T11:19:43.432Z,53.20
2019-03-31T11:24:50.077Z,46.90
2019-03-31T11:29:56.990Z,52.23
2019-03-31T11:35:03.993Z,50.83
2019-03-31T11:40:10.750Z,50.87
2019-03-31T11:45:17.767Z,52.60
2019-03-31T11:50:24.351Z,52.03
2019-03-31T11:55:31.036Z,49.13
2019-03-31T12:00:41.249Z,47.00
2019-03-31T12:05:47.791Z,47.17
2019-03-31T12:10:54.391Z,45.47
2019-03-31T12:16:01.260Z,44.70
2019-03-31T12:21:07.791Z,66.47
2019-03-31T12:26:14.482Z,49.60
2019-03-31T12:31:21.029Z,46.80
2019-03-31T12:36:27.708Z,38.60
2019-03-31T12:41:34.305Z,41.43
2019-03-31T12:46:40.905Z,43.67
2019-03-31T12:51:47.565Z,43.83
2019-03-31T12:56:54.054Z,41.60
2019-03-31T13:02:00.711Z,48.17
2019-03-31T13:07:07.308Z,38.00
2019-03-31T13:12:13.965Z,36.07
2019-03-31T13:17:20.681Z,38.00
2019-03-31T13:22:27.400Z,37.90
2019-03-31T13:27:33.942Z,39.43
2019-03-31T13:32:40.617Z,36.83
2019-03-31T13:37:47.309Z,36.20
2019-03-31T13:42:54.137Z,38.90
2019-03-31T13:48:00.693Z,39.33
2019-03-31T13:53:07.329Z,40.73
2019-03-31T13:58:14.951Z,41.63
2019-03-31T14:03:21.995Z,43.00
2019-03-31T14:08:29.657Z,41.40
2019-03-31T14:13:36.547Z,40.87
2019-03-31T14:18:43.323Z,49.83
2019-03-31T14:23:49.900Z,49.43
2019-03-31T14:28:56.816Z,50.00
2019-03-31T14:34:03.459Z,52.47
2019-03-31T14:39:10.777Z,51.33
2019-03-31T14:44:17.871Z,49.80
2019-03-31T14:49:25.943Z,45.87
2019-03-31T14:54:32.687Z,48.63
2019-03-31T14:59:39.306Z,49.53
2019-03-31T15:04:45.951Z,51.77
2019-03-31T15:09:52.468Z,41.83
2019-03-31T15:15:00.385Z,44.13
2019-03-31T15:20:08.356Z,44.80
2019-03-31T15:25:14.979Z,39.80
2019-03-31T15:30:21.651Z,40.00
2019-03-31T15:35:28.241Z,39.67
2019-03-31T15:40:34.815Z,39.70
2019-03-31T15:45:41.445Z,44.50
2019-03-31T15:50:47.894Z,35.43
2019-03-31T15:55:54.564Z,30.03
2019-03-31T16:01:02.207Z,30.77
2019-03-31T16:06:08.769Z,32.43
2019-03-31T16:11:14.900Z,30.47
2019-03-31T16:16:21.045Z,27.87
2019-03-31T16:21:27.248Z,29.83
2019-03-31T16:26:34.499Z,24.37
2019-03-31T16:31:40.577Z,21.27
2019-03-31T16:36:46.813Z,21.60
2019-03-31T16:41:53.885Z,22.83
2019-03-31T16:47:00.041Z,19.43
2019-03-31T16:52:07.288Z,17.13
2019-03-31T16:57:13.321Z,15.20
2019-03-31T17:02:19.491Z,14.63
2019-03-31T17:07:25.539Z,14.43
2019-03-31T17:12:31.589Z,15.47
2019-03-31T17:17:37.536Z,13.27
2019-03-31T17:22:43.750Z,12.83
2019-03-31T17:27:49.990Z,10.77
2019-03-31T17:32:56.061Z,12.60
2019-03-31T17:38:02.102Z,13.03
2019-03-31T17:43:08.214Z,9.27
2019-03-31T17:48:14.407Z,10.93
2019-03-31T17:53:20.570Z,9.00
2019-03-31T17:58:26.649Z,11.00
2019-03-31T18:03:32.750Z,9.60
2019-03-31T18:08:42.186Z,9.17
2019-03-31T18:13:47.666Z,8.10
2019-03-31T18:18:53.596Z,12.60
2019-03-31T18:23:59.731Z,11.90
2019-03-31T18:29:06.862Z,11.37
2019-03-31T18:34:12.933Z,8.93
2019-03-31T18:39:19.029Z,13.20
2019-03-31T18:44:25.291Z,9.57
2019-03-31T18:49:31.274Z,9.97
2019-03-31T18:54:59.473Z,8.40
2019-03-31T19:00:32.623Z,7.83
2019-03-31T19:05:56.891Z,10.30
2019-03-31T19:11:21.932Z,8.63
2019-03-31T19:16:59.725Z,8.60
2019-03-31T19:22:12.836Z,9.20
2019-03-31T19:27:37.912Z,9.00
2019-03-31T19:33:01.878Z,10.73
2019-03-31T19:38:14.123Z,9.13
2019-03-31T19:43:33.101Z,11.43
2019-03-31T19:48:58.108Z,11.70
2019-03-31T19:54:23.013Z,9.80
2019-03-31T19:59:47.659Z,8.90
2019-03-31T20:05:12.666Z,10.67
2019-03-31T20:10:26.086Z,11.17
2019-03-31T20:15:46.612Z,15.50
2019-03-31T20:21:04.405Z,18.07
2019-03-31T20:26:23.949Z,14.17
2019-03-31T20:31:51.826Z,14.47
2019-03-31T20:37:15.003Z,16.40
2019-03-31T20:42:37.283Z,15.63
2019-03-31T20:47:43.392Z,16.43
2019-03-31T20:52:49.476Z,15.87
2019-03-31T20:57:56.692Z,17.13
2019-03-31T21:03:03.941Z,14.33
2019-03-31T21:08:10.216Z,17.97
2019-03-31T21:13:16.366Z,15.17
2019-03-31T21:18:22.533Z,16.27
2019-03-31T21:23:28.697Z,16.30
2019-03-31T21:28:34.857Z,17.10
2019-03-31T21:33:40.865Z,17.83
2019-03-31T21:38:46.927Z,16.07
2019-03-31T21:43:53.089Z,16.03
2019-03-31T21:48:59.275Z,14.47
2019-03-31T21:54:05.331Z,14.50
2019-03-31T21:59:11.324Z,14.40
2019-03-31T22:04:17.429Z,16.13
2019-03-31T22:09:23.587Z,14.33
2019-03-31T22:14:29.784Z,14.90
2019-03-31T22:19:35.837Z,12.07
2019-03-31T22:24:41.908Z,14.90
2019-03-31T22:29:47.985Z,13.73
2019-03-31T22:34:54.162Z,14.07
2019-03-31T22:40:00.372Z,13.10
2019-03-31T22:45:06.749Z,12.57
2019-03-31T22:50:12.894Z,12.93
2019-03-31T22:55:19.882Z,11.37
2019-03-31T23:00:27.200Z,12.93
2019-03-31T23:05:33.365Z,15.77
2019-03-31T23:10:39.448Z,15.50
2019-03-31T23:15:45.629Z,11.00
2019-03-31T23:20:51.793Z,10.23
2019-03-31T23:25:57.891Z,12.87
2019-03-31T23:31:03.957Z,8.60
2019-03-31T23:36:21.286Z,11.63
2019-03-31T23:41:27.360Z,11.43
2019-03-31T23:46:35.365Z,10.43
2019-03-31T23:51:41.260Z,10.73
2019-03-31T23:56:47.330Z,9.87
